Time;durP1;ratioP1;P1;durP2;ratioP2;P2;SDS_P1;SDS_P2;PMS_P1;PMS_P2;Temp;Humidity;BMP_temperature;BMP_pressure;BME280_temperature;BME280_humidity;BME280_pressure;Samples;Min_cycle;Max_cycle;Signal;HPM_P1;HPM_P2
2024/04/23 00:00:07;;;;;;;10.30;6.97;;;;;;;3.36;73.35;100953.97;5449433;26;20289;-57
2024/04/23 00:02:37;;;;;;;12.70;7.13;;;;;;;3.38;73.04;100944.66;5449391;26;20246;-57
2024/04/23 00:05:05;;;;;;;10.50;7.60;;;;;;;3.37;72.94;100957.38;5452579;26;20242;-57
2024/04/23 00:07:34;;;;;;;10.53;7.93;;;;;;;3.34;73.12;100936.88;5450301;26;20313;-55
2024/04/23 00:10:02;;;;;;;12.47;7.10;;;;;;;3.34;73.05;100932.66;5451597;26;20282;-57
2024/04/23 00:12:34;;;;;;;14.73;8.10;;;;;;;3.33;73.00;100932.63;5450485;26;20246;-58
2024/04/23 00:15:01;;;;;;;10.90;6.50;;;;;;;3.32;73.31;100929.22;5448142;26;20602;-57
2024/04/23 00:17:31;;;;;;;9.30;6.43;;;;;;;3.35;73.49;100925.88;5450929;26;20323;-57
2024/04/23 00:19:58;;;;;;;14.10;7.80;;;;;;;3.41;73.47;100932.84;5449493;26;20574;-56
2024/04/23 00:22:28;;;;;;;14.60;7.73;;;;;;;3.43;73.63;100931.25;5442830;26;20334;-55
2024/04/23 00:24:56;;;;;;;10.10;6.60;;;;;;;3.46;73.29;100929.66;5448101;26;20350;-56
2024/04/23 00:27:25;;;;;;;10.33;7.07;;;;;;;3.51;73.19;100922.16;5448531;26;20720;-56
2024/04/23 00:29:55;;;;;;;10.97;7.57;;;;;;;3.53;73.23;100926.44;5444527;26;20760;-57
2024/04/23 00:32:25;;;;;;;11.20;7.97;;;;;;;3.54;72.76;100923.09;5446984;26;20716;-57
2024/04/23 00:34:52;;;;;;;10.77;7.57;;;;;;;3.52;72.58;100917.09;5447933;26;20246;-56
2024/04/23 00:37:22;;;;;;;13.27;8.20;;;;;;;3.50;72.50;100915.28;5450555;26;20338;-55
2024/04/23 00:39:49;;;;;;;12.27;7.33;;;;;;;3.51;72.45;100925.56;5444238;26;20606;-57
2024/04/23 00:42:19;;;;;;;12.17;8.07;;;;;;;3.50;72.43;100920.38;5448176;26;20238;-57
2024/04/23 00:44:49;;;;;;;11.33;8.37;;;;;;;3.49;72.31;100924.63;5449097;26;20234;-58
2024/04/23 00:47:19;;;;;;;11.67;7.97;;;;;;;3.44;72.26;100917.69;5447176;26;20258;-58
2024/04/23 00:49:50;;;;;;;10.60;7.40;;;;;;;3.42;72.58;100922.69;5446060;26;20230;-58
2024/04/23 00:52:18;;;;;;;11.70;8.10;;;;;;;3.44;72.67;100927.88;5448456;26;20258;-59
2024/04/23 00:54:49;;;;;;;12.50;8.13;;;;;;;3.42;72.67;100927.78;5447907;26;20254;-58
2024/04/23 00:57:16;;;;;;;10.60;7.13;;;;;;;3.41;72.70;100943.91;5447914;26;22253;-59
2024/04/23 00:59:46;;;;;;;10.90;7.53;;;;;;;3.38;72.37;100933.63;5444690;26;20246;-57
2024/04/23 01:02:13;;;;;;;11.23;7.37;;;;;;;3.36;72.77;100941.22;5449838;26;20713;-59
2024/04/23 01:04:46;;;;;;;9.40;7.00;;;;;;;3.37;73.18;100935.31;5428851;26;20242;-61
2024/04/23 01:07:13;;;;;;;16.57;8.07;;;;;;;3.33;72.53;100930.06;5443273;26;20373;-59
2024/04/23 01:09:43;;;;;;;16.90;8.60;;;;;;;3.28;72.92;100936.72;5445929;26;20234;-60
2024/04/23 01:12:10;;;;;;;12.50;7.93;;;;;;;3.27;73.07;100940.91;5448071;26;20230;-59
2024/04/23 01:14:43;;;;;;;12.53;7.80;;;;;;;3.27;73.24;100940.06;5448174;26;20755;-61
2024/04/23 01:17:11;;;;;;;11.63;7.53;;;;;;;3.26;73.09;100943.41;5447837;26;20245;-59
2024/04/23 01:19:43;;;;;;;13.23;8.40;;;;;;;3.24;73.01;100951.03;5449746;26;20787;-60
2024/04/23 01:22:21;;;;;;;12.80;8.63;;;;;;;3.18;73.12;100945.72;5449933;26;20633;-60
2024/04/23 01:24:58;;;;;;;12.10;8.40;;;;;;;3.13;73.36;100944.72;5447169;26;20238;-60
2024/04/23 01:27:28;;;;;;;13.23;8.40;;;;;;;3.13;73.53;100947.25;5446587;26;20233;-65
2024/04/23 01:29:59;;;;;;;13.10;8.30;;;;;;;3.11;73.81;100937.00;5447399;26;20338;-61
2024/04/23 01:32:27;;;;;;;11.90;7.77;;;;;;;3.06;74.17;100924.97;5448107;26;20361;-59
2024/04/23 01:34:58;;;;;;;14.17;8.73;;;;;;;3.08;74.10;100925.84;5446299;26;20717;-61
2024/04/23 01:37:28;;;;;;;13.70;8.50;;;;;;;3.07;74.30;100921.59;5447636;26;21024;-58
2024/04/23 01:40:00;;;;;;;11.60;7.90;;;;;;;3.10;74.33;100921.69;5448201;26;20238;-57
2024/04/23 01:42:31;;;;;;;10.83;7.50;;;;;;;3.11;74.11;100924.28;5445228;26;20840;-58
2024/04/23 01:45:02;;;;;;;14.80;8.47;;;;;;;3.07;74.07;100922.44;5447571;26;20246;-61
2024/04/23 01:47:29;;;;;;;12.07;7.87;;;;;;;3.06;74.29;100917.31;5447201;26;20250;-60
2024/04/23 01:49:59;;;;;;;10.73;7.93;;;;;;;3.07;74.33;100911.41;5447664;26;20254;-60
2024/04/23 01:52:27;;;;;;;11.53;8.10;;;;;;;3.09;74.45;100909.75;5446373;26;20753;-59
2024/04/23 01:54:57;;;;;;;12.47;7.13;;;;;;;3.11;74.25;100900.50;5446363;26;20324;-61
2024/04/23 01:57:24;;;;;;;12.30;8.13;;;;;;;3.13;74.09;100906.53;5448022;26;20327;-60
2024/04/23 02:00:02;;;;;;;13.07;8.47;;;;;;;3.12;74.25;100910.72;5447544;26;20764;-56
2024/04/23 02:02:30;;;;;;;13.77;8.07;;;;;;;3.13;73.96;100909.94;5444522;26;20234;-57
2024/04/23 02:05:01;;;;;;;10.50;7.93;;;;;;;3.09;73.91;100908.09;5447799;26;20756;-57
2024/04/23 02:07:29;;;;;;;11.07;7.60;;;;;;;3.07;73.72;100906.31;5442657;26;20280;-58
2024/04/23 02:10:00;;;;;;;13.63;7.83;;;;;;;3.03;74.40;100899.41;5447130;26;20829;-56
2024/04/23 02:12:27;;;;;;;11.53;7.93;;;;;;;3.07;74.57;100907.16;5436288;26;20246;-56
2024/04/23 02:14:59;;;;;;;11.57;7.53;;;;;;;3.07;74.04;100912.25;5446497;26;20238;-57
2024/04/23 02:17:26;;;;;;;10.33;7.13;;;;;;;3.07;74.10;100916.50;5440609;26;20234;-57
2024/04/23 02:19:56;;;;;;;12.33;7.40;;;;;;;3.06;74.15;100919.88;5443076;26;20765;-58
2024/04/23 02:22:23;;;;;;;13.20;8.40;;;;;;;3.06;74.26;100918.19;5441725;26;20253;-56
2024/04/23 02:24:53;;;;;;;12.47;7.70;;;;;;;3.05;74.35;100918.13;5448129;26;20425;-57
2024/04/23 02:27:20;;;;;;;11.67;7.93;;;;;;;3.02;74.19;100926.53;5443020;26;20346;-56
2024/04/23 02:29:50;;;;;;;15.43;7.90;;;;;;;2.99;74.09;100925.56;5445989;26;20358;-56
2024/04/23 02:32:20;;;;;;;12.73;8.40;;;;;;;2.94;74.47;100927.06;5440116;26;20246;-58
2024/04/23 02:34:49;;;;;;;12.13;7.83;;;;;;;2.99;74.59;100928.13;5444005;26;20254;-58
2024/04/23 02:37:19;;;;;;;12.10;7.93;;;;;;;3.00;74.51;100935.78;5445875;26;20286;-56
2024/04/23 02:39:46;;;;;;;13.03;8.23;;;;;;;2.98;74.48;100922.13;5446306;26;20288;-58
2024/04/23 02:42:16;;;;;;;13.63;7.87;;;;;;;2.99;74.74;100917.94;5446118;26;20242;-55
2024/04/23 02:44:43;;;;;;;12.50;8.07;;;;;;;2.99;74.25;100923.03;5444053;26;20254;-62
2024/04/23 02:47:13;;;;;;;12.73;8.30;;;;;;;3.00;74.40;100929.84;5449372;26;20339;-57
2024/04/23 02:49:43;;;;;;;12.30;8.40;;;;;;;3.00;74.56;100933.25;5452790;26;20258;-56
2024/04/23 02:52:12;;;;;;;12.07;8.10;;;;;;;3.00;74.50;100929.84;5451586;26;20622;-58
2024/04/23 02:54:39;;;;;;;16.73;7.67;;;;;;;3.01;74.74;100927.31;5454416;26;20809;-57
2024/04/23 02:57:09;;;;;;;10.87;7.93;;;;;;;3.02;74.59;100923.09;5453083;26;20346;-58
2024/04/23 02:59:36;;;;;;;15.30;8.73;;;;;;;3.01;74.14;100926.47;5454575;26;20709;-58
2024/04/23 03:02:07;;;;;;;11.60;8.10;;;;;;;2.99;74.66;100930.66;5453023;26;20713;-56
2024/04/23 03:04:37;;;;;;;13.40;8.17;;;;;;;2.98;74.62;100931.44;5454872;26;20744;-58
2024/04/23 03:07:07;;;;;;;11.83;7.60;;;;;;;2.96;75.14;100928.88;5453227;26;20852;-56
2024/04/23 03:09:36;;;;;;;12.73;8.13;;;;;;;3.00;75.13;100934.94;5449872;26;20250;-57
2024/04/23 03:12:04;;;;;;;14.47;9.43;;;;;;;3.02;74.87;100939.25;5451191;26;20261;-59
2024/04/23 03:14:34;;;;;;;16.17;8.20;;;;;;;3.02;74.55;100928.19;5453979;26;20319;-57
2024/04/23 03:17:01;;;;;;;12.17;8.03;;;;;;;3.00;74.67;100932.38;5455458;26;20245;-58
2024/04/23 03:19:31;;;;;;;12.20;8.20;;;;;;;2.97;74.67;100930.59;5453094;26;20234;-59
2024/04/23 03:21:58;;;;;;;13.27;7.83;;;;;;;2.96;75.05;100925.47;5452845;26;20717;-59
2024/04/23 03:24:32;;;;;;;13.53;8.23;;;;;;;3.00;75.20;100929.84;5453726;26;20341;-58
2024/04/23 03:26:59;;;;;;;13.13;7.97;;;;;;;3.00;74.92;100922.19;5453110;26;20758;-56
2024/04/23 03:29:29;;;;;;;12.57;7.57;;;;;;;3.00;75.07;100917.97;5449138;26;20358;-58
2024/04/23 03:32:00;;;;;;;11.33;8.00;;;;;;;3.04;75.28;100924.03;5453080;26;20234;-57
2024/04/23 03:34:30;;;;;;;12.77;8.77;;;;;;;3.08;75.29;100920.75;5452773;26;20977;-58
2024/04/23 03:37:00;;;;;;;14.87;8.30;;;;;;;3.10;74.72;100921.69;5453664;26;20300;-57
2024/04/23 03:39:32;;;;;;;10.77;7.60;;;;;;;3.09;74.88;100914.84;5451992;26;20618;-59
2024/04/23 03:42:03;;;;;;;14.13;8.77;;;;;;;3.11;74.83;100913.22;5451769;26;20717;-61
2024/04/23 03:44:33;;;;;;;12.13;8.37;;;;;;;3.09;74.53;100914.84;5452985;26;20246;-59
2024/04/23 03:47:05;;;;;;;14.20;7.87;;;;;;;3.07;74.73;100917.34;5452269;26;20345;-58
2024/04/23 03:49:35;;;;;;;13.63;8.70;;;;;;;3.04;74.85;100911.28;5449694;26;21916;-58
2024/04/23 03:52:06;;;;;;;13.27;8.70;;;;;;;3.06;74.74;100917.31;5453011;26;20265;-57
2024/04/23 03:54:38;;;;;;;14.60;8.30;;;;;;;3.08;74.73;100918.22;5453269;26;20756;-56
2024/04/23 03:57:05;;;;;;;12.70;8.37;;;;;;;3.09;75.02;100909.75;5452929;26;20650;-58
2024/04/23 03:59:35;;;;;;;12.43;7.53;;;;;;;3.13;74.58;100922.66;5448289;26;20276;-58
2024/04/23 04:07:37;;;;;;;15.03;9.03;;;;;;;3.12;74.37;100922.59;5452612;26;20567;-58
2024/04/23 04:10:10;;;;;;;14.73;7.93;;;;;;;3.12;74.34;100920.03;5448711;26;20293;-58
2024/04/23 04:12:39;;;;;;;15.20;7.93;;;;;;;3.13;74.05;100919.25;5446848;26;20289;-57
2024/04/23 04:15:09;;;;;;;11.80;8.20;;;;;;;3.12;73.66;100920.03;5446318;26;20347;-58
2024/04/23 04:17:36;;;;;;;15.30;8.87;;;;;;;3.09;73.77;100927.56;5448541;26;20258;-57
2024/04/23 04:20:11;;;;;;;13.83;8.17;;;;;;;3.05;73.96;100925.75;5449283;26;20745;-57
2024/04/23 04:22:38;;;;;;;13.07;8.67;;;;;;;3.07;74.44;100925.00;5447771;26;20234;-58
2024/04/23 04:25:11;;;;;;;13.03;8.27;;;;;;;3.07;73.94;100921.59;5447932;26;20226;-58
2024/04/23 04:27:38;;;;;;;10.53;7.00;;;;;;;3.07;73.81;100919.91;5446744;26;21911;-58
2024/04/23 04:30:09;;;;;;;14.70;8.63;;;;;;;3.04;73.59;100917.25;5448098;26;20326;-60
2024/04/23 04:32:36;;;;;;;14.93;8.07;;;;;;;3.01;73.52;100916.28;5448513;26;20713;-58
2024/04/23 04:35:07;;;;;;;11.17;8.17;;;;;;;2.98;73.46;100916.19;5445511;26;20300;-59
2024/04/23 04:37:34;;;;;;;12.40;8.17;;;;;;;2.92;73.50;100904.13;5443438;26;20794;-58
2024/04/23 04:40:04;;;;;;;15.33;8.40;;;;;;;2.98;73.46;100916.19;5445830;26;20314;-58
2024/04/23 04:42:34;;;;;;;10.70;8.00;;;;;;;2.96;73.55;100910.19;5448398;26;20342;-57
2024/04/23 04:45:04;;;;;;;14.33;7.83;;;;;;;2.99;73.73;100912.84;5445738;26;20975;-58
2024/04/23 04:47:31;;;;;;;13.80;8.13;;;;;;;3.04;73.86;100919.78;5445411;26;20342;-58
2024/04/23 04:50:01;;;;;;;11.73;7.70;;;;;;;3.11;73.61;100923.41;5447198;26;20284;-59
2024/04/23 04:52:28;;;;;;;14.23;8.03;;;;;;;3.11;73.37;100913.22;5447190;26;20286;-59
2024/04/23 04:54:58;;;;;;;11.40;7.90;;;;;;;3.15;73.41;100915.91;5448328;26;20280;-57
2024/04/23 04:57:26;;;;;;;13.43;8.70;;;;;;;3.22;73.70;100917.00;5448682;26;20242;-58
2024/04/23 04:59:58;;;;;;;13.03;8.67;;;;;;;3.29;72.37;100918.91;5447390;26;20234;-59
2024/04/23 05:02:25;;;;;;;11.97;8.00;;;;;;;3.26;72.29;100906.06;5448653;26;20297;-57
2024/04/23 05:04:56;;;;;;;12.80;7.77;;;;;;;3.28;72.32;100907.00;5447171;26;20250;-58
2024/04/23 05:07:23;;;;;;;12.60;8.17;;;;;;;3.38;72.15;100920.88;5444809;26;20255;-58
2024/04/23 05:09:53;;;;;;;16.47;9.30;;;;;;;3.37;71.70;100920.00;5446472;26;20335;-59
2024/04/23 05:12:20;;;;;;;14.73;8.37;;;;;;;3.38;71.55;100914.09;5447588;26;20230;-57
2024/04/23 05:14:50;;;;;;;15.47;8.90;;;;;;;3.36;71.84;100910.66;5448882;26;20246;-57
2024/04/23 05:17:20;;;;;;;11.77;7.97;;;;;;;3.39;72.36;100902.25;5446600;26;20366;-59
2024/04/23 05:19:49;;;;;;;12.87;7.83;;;;;;;3.43;72.50;100898.97;5445022;26;20296;-60
2024/04/23 05:22:17;;;;;;;11.57;7.33;;;;;;;3.55;72.27;100908.69;5448856;26;20602;-57
2024/04/23 05:24:46;;;;;;;13.83;8.00;;;;;;;3.59;71.10;100913.03;5444224;26;20331;-57
2024/04/23 05:27:13;;;;;;;12.30;8.13;;;;;;;3.57;70.74;100915.56;5446210;26;20242;-58
2024/04/23 05:29:45;;;;;;;10.70;7.33;;;;;;;3.56;70.14;100908.72;5449180;26;20718;-61
2024/04/23 05:35:03;;;;;;;12.43;7.90;;;;;;;3.52;70.69;100917.09;5452864;26;20246;-60
2024/04/23 05:37:33;;;;;;;12.77;8.23;;;;;;;3.56;70.87;100925.69;5451158;26;20310;-64
2024/04/23 05:40:03;;;;;;;11.70;8.00;;;;;;;3.59;70.68;100924.09;5448724;26;20249;-61
2024/04/23 05:42:33;;;;;;;11.50;8.33;;;;;;;3.63;70.99;100920.81;5450473;26;20294;-61
2024/04/23 05:45:05;;;;;;;11.17;8.10;;;;;;;3.73;71.26;100916.88;5448454;26;20297;-60
2024/04/23 05:48:14;;;;;;;12.97;7.80;;;;;;;3.81;70.29;100910.31;5451122;26;20759;-61
2024/04/23 05:51:21;;;;;;;11.53;7.90;;;;;;;3.91;70.40;100920.81;5305601;27;20337;-62
2024/04/23 05:54:28;;;;;;;12.30;8.20;;;;;;;4.02;70.29;100919.44;5307766;27;20277;-61
2024/04/23 05:57:01;;;;;;;11.80;7.90;;;;;;;4.11;70.11;100915.44;5308422;27;20592;-59
2024/04/23 05:59:28;;;;;;;11.53;7.00;;;;;;;4.15;68.94;100916.41;5369430;26;20253;-58
2024/04/23 06:01:58;;;;;;;14.53;8.43;;;;;;;4.17;68.54;100919.00;5446304;26;20342;-57
2024/04/23 06:04:25;;;;;;;12.53;8.13;;;;;;;4.18;68.73;100921.59;5440613;26;20289;-57
2024/04/23 06:06:55;;;;;;;11.10;7.50;;;;;;;4.23;68.51;100920.03;5445277;26;20251;-61
2024/04/23 06:09:22;;;;;;;14.83;8.13;;;;;;;4.31;68.25;100918.56;5448933;26;20242;-59
2024/04/23 06:11:52;;;;;;;11.07;8.50;;;;;;;4.40;67.73;100934.94;5443345;26;20258;-57
2024/04/23 06:14:22;;;;;;;12.30;7.80;;;;;;;4.36;67.68;100924.66;5444297;26;20250;-55
2024/04/23 06:17:20;;;;;;;14.07;8.40;;;;;;;4.45;67.77;100935.94;5450183;26;20242;-57
2024/04/23 06:20:01;;;;;;;13.67;8.50;;;;;;;4.52;67.78;100937.81;5444130;26;20234;-56
2024/04/23 06:22:35;;;;;;;14.23;8.83;;;;;;;4.52;66.86;100941.25;5446948;26;20250;-57
2024/04/23 06:25:04;;;;;;;13.77;8.87;;;;;;;4.48;66.90;100936.03;5443971;26;20727;-53
2024/04/23 06:27:36;;;;;;;11.90;8.13;;;;;;;4.50;67.49;100942.03;5448304;26;20245;-57
2024/04/23 06:30:07;;;;;;;14.03;8.40;;;;;;;4.56;67.86;100952.41;5448964;26;20542;-56
2024/04/23 06:32:37;;;;;;;12.57;8.50;;;;;;;4.61;67.17;100948.31;5450253;26;20764;-57
2024/04/23 06:35:05;;;;;;;12.67;8.40;;;;;;;4.68;66.92;100951.91;5450502;26;20234;-58
2024/04/23 06:37:35;;;;;;;13.77;8.43;;;;;;;4.73;66.49;100943.50;5450859;26;20218;-58
2024/04/23 06:40:06;;;;;;;12.33;7.90;;;;;;;4.82;66.37;100945.44;5450934;26;20234;-58
2024/04/23 06:42:36;;;;;;;13.10;8.13;;;;;;;4.81;65.08;100942.03;5450388;26;20570;-58
2024/04/23 06:45:06;;;;;;;13.33;9.00;;;;;;;4.90;65.15;100945.63;5445082;26;20254;-57
2024/04/23 06:47:37;;;;;;;15.33;8.33;;;;;;;4.98;65.37;100955.25;5442302;26;20230;-56
2024/04/23 06:50:05;;;;;;;15.00;8.20;;;;;;;5.09;65.35;100943.59;5414691;26;20757;-58
2024/04/23 06:52:35;;;;;;;11.07;7.83;;;;;;;5.23;65.25;100950.75;5445376;26;20289;-57
2024/04/23 06:55:02;;;;;;;11.53;7.53;;;;;;;5.36;64.71;100945.09;5449395;26;20226;-59
2024/04/23 06:57:32;;;;;;;16.17;7.97;;;;;;;5.50;63.45;100950.56;5450505;26;20222;-58
2024/04/23 06:59:59;;;;;;;11.43;7.50;;;;;;;5.57;62.40;100942.19;5449650;26;20618;-57
2024/04/23 07:02:32;;;;;;;11.70;7.83;;;;;;;5.61;62.67;100948.25;5450168;26;20281;-61
2024/04/23 07:04:59;;;;;;;10.87;7.47;;;;;;;5.70;63.05;100939.06;5450316;26;20226;-58
2024/04/23 07:07:29;;;;;;;10.43;7.13;;;;;;;5.84;62.30;100931.72;5447827;26;20280;-63
2024/04/23 07:09:56;;;;;;;10.27;7.40;;;;;;;6.02;62.20;100934.69;5448384;26;20317;-58
2024/04/23 07:12:26;;;;;;;11.67;6.90;;;;;;;6.08;61.73;100940.81;5446870;26;20246;-59
2024/04/23 07:14:53;;;;;;;10.50;7.13;;;;;;;6.12;59.44;100957.94;5445919;26;20261;-58
2024/04/23 07:17:23;;;;;;;8.57;6.20;;;;;;;6.06;59.15;100945.88;5449843;26;20334;-59
2024/04/23 07:19:53;;;;;;;8.90;6.83;;;;;;;6.02;58.62;100946.63;5437860;26;20321;-59
2024/04/23 07:22:23;;;;;;;8.80;6.47;;;;;;;5.90;58.97;100946.34;5445310;26;20246;-59
2024/04/23 07:24:50;;;;;;;13.50;7.63;;;;;;;5.97;59.83;100951.66;5448003;26;20249;-59
2024/04/23 07:27:19;;;;;;;11.13;7.03;;;;;;;6.02;59.05;100946.63;5441723;26;20259;-59
2024/04/23 07:29:47;;;;;;;10.77;7.13;;;;;;;6.11;58.39;100940.84;5442975;26;20869;-60
2024/04/23 07:32:17;;;;;;;8.03;6.10;;;;;;;6.27;56.96;100943.75;5437967;26;20678;-58
2024/04/23 07:34:44;;;;;;;9.17;6.27;;;;;;;6.38;55.96;100940.56;5451398;26;20238;-57
2024/04/23 07:37:17;;;;;;;10.87;6.57;;;;;;;6.40;56.16;100926.94;5452166;26;20234;-59
2024/04/23 07:39:44;;;;;;;10.37;6.33;;;;;;;6.47;56.67;100931.34;5447379;26;20306;-57
2024/04/23 07:42:14;;;;;;;10.40;7.07;;;;;;;6.48;55.84;100939.88;5452353;26;20323;-58
2024/04/23 07:44:41;;;;;;;9.83;6.97;;;;;;;6.39;55.51;100934.59;5450586;26;20243;-59
2024/04/23 07:47:11;;;;;;;9.03;5.70;;;;;;;6.22;54.54;100940.25;5453257;26;20222;-59
2024/04/23 07:49:39;;;;;;;11.87;5.80;;;;;;;6.05;53.61;100931.34;5452845;26;20234;-59
2024/04/23 07:52:09;;;;;;;7.27;4.23;;;;;;;5.91;51.76;100932.72;5440567;26;20298;-58
2024/04/23 07:54:39;;;;;;;6.23;4.13;;;;;;;5.80;51.82;100937.59;5444638;26;20729;-56
2024/04/23 07:57:09;;;;;;;7.47;3.97;;;;;;;5.72;50.14;100924.66;5452663;26;20571;-57
2024/04/23 07:59:36;;;;;;;5.03;3.20;;;;;;;5.59;49.49;100927.75;5452278;26;20246;-58
2024/04/23 08:02:06;;;;;;;4.20;3.60;;;;;;;5.48;50.00;100918.97;5451600;26;20689;-57
2024/04/23 08:04:33;;;;;;;6.07;3.60;;;;;;;5.51;50.04;100931.81;5448346;26;20289;-59
2024/04/23 08:07:03;;;;;;;3.27;2.43;;;;;;;5.54;49.64;100921.66;5450342;26;20246;-56
2024/04/23 08:09:30;;;;;;;3.93;2.80;;;;;;;5.55;48.22;100933.63;5448094;26;20561;-55
2024/04/23 08:12:02;;;;;;;3.17;2.13;;;;;;;5.52;46.89;100923.31;5423104;26;20234;-57
2024/04/23 08:14:30;;;;;;;4.10;2.57;;;;;;;5.59;45.89;100930.28;5451902;26;20242;-59
2024/04/23 08:16:59;;;;;;;4.43;3.00;;;;;;;5.59;45.71;100930.28;5451841;26;22206;-57
2024/04/23 08:19:27;;;;;;;3.17;2.63;;;;;;;5.59;45.64;100927.75;5451498;26;20800;-56
2024/04/23 08:21:58;;;;;;;3.47;2.73;;;;;;;5.59;46.25;100920.06;5450647;26;20783;-56
2024/04/23 08:24:25;;;;;;;4.50;2.87;;;;;;;5.65;46.86;100920.22;5450338;26;20756;-59
2024/04/23 08:26:55;;;;;;;5.13;3.27;;;;;;;5.76;46.79;100917.91;5447113;26;20253;-57
2024/04/23 08:29:25;;;;;;;4.07;3.00;;;;;;;5.79;46.78;100918.84;5451873;26;20845;-57
2024/04/23 08:31:55;;;;;;;3.50;2.90;;;;;;;5.81;46.54;100914.59;5451416;26;20242;-57
2024/04/23 08:34:22;;;;;;;7.73;3.50;;;;;;;5.82;46.59;100908.69;5436650;26;20242;-57
2024/04/23 08:36:54;;;;;;;3.93;3.10;;;;;;;5.81;45.61;100906.94;5451622;26;20816;-59
2024/04/23 08:39:22;;;;;;;5.10;3.13;;;;;;;5.73;46.01;100903.34;5447721;26;20245;-59
2024/04/23 08:41:53;;;;;;;4.20;2.70;;;;;;;5.72;46.48;100899.06;5452371;26;20250;-59
2024/04/23 08:44:26;;;;;;;4.97;3.07;;;;;;;5.77;46.80;100902.59;5451982;26;20636;-58
2024/04/23 08:46:56;;;;;;;2.80;2.60;;;;;;;5.79;48.02;100900.94;5452119;26;20638;-60
2024/04/23 08:49:24;;;;;;;3.60;2.80;;;;;;;6.03;47.43;100902.31;5452283;26;20323;-62
2024/04/23 08:51:54;;;;;;;4.10;2.87;;;;;;;6.20;46.79;100895.84;5452696;26;20245;-63
2024/04/23 08:54:22;;;;;;;6.67;2.80;;;;;;;6.47;46.56;100894.63;5442560;26;20297;-64
2024/04/23 08:56:52;;;;;;;4.10;3.20;;;;;;;6.71;45.20;100895.09;5451889;26;20246;-66
2024/04/23 08:59:21;;;;;;;4.27;3.30;;;;;;;6.88;44.63;100897.09;5452122;26;20818;-62
2024/04/23 09:02:00;;;;;;;4.50;3.27;;;;;;;7.05;44.40;100899.94;5451902;26;20813;-62
2024/04/23 09:04:28;;;;;;;4.13;3.13;;;;;;;7.22;43.83;100895.97;5451370;26;20281;-60
2024/04/23 09:06:58;;;;;;;3.23;2.93;;;;;;;7.53;43.26;100897.25;5452111;26;20613;-63
2024/04/23 09:09:25;;;;;;;5.33;3.30;;;;;;;7.71;42.31;100891.53;5446432;26;20300;-64
2024/04/23 09:11:56;;;;;;;4.47;3.67;;;;;;;7.82;42.06;100886.56;5450744;26;20718;-63
2024/04/23 09:14:23;;;;;;;4.03;3.63;;;;;;;7.77;41.37;100886.50;5450087;26;20632;-63
2024/04/23 09:16:56;;;;;;;3.73;3.40;;;;;;;7.85;42.14;100884.03;5451193;26;20705;-63
2024/04/23 09:19:25;;;;;;;4.20;3.73;;;;;;;7.87;41.16;100884.91;5451129;26;20789;-62
2024/04/23 09:21:55;;;;;;;4.83;3.57;;;;;;;7.90;41.35;100877.25;5451290;26;20825;-63
2024/04/23 09:24:24;;;;;;;6.73;3.60;;;;;;;8.07;41.35;100873.19;5449697;26;20646;-64
2024/04/23 09:26:54;;;;;;;5.10;4.17;;;;;;;8.28;41.47;100874.25;5447663;26;20301;-64
2024/04/23 09:29:21;;;;;;;5.50;3.97;;;;;;;8.32;40.32;100873.44;5451076;26;20768;-63
2024/04/23 09:31:52;;;;;;;6.03;3.57;;;;;;;8.26;40.08;100871.69;5450741;26;20234;-63
2024/04/23 09:34:26;;;;;;;4.37;3.67;;;;;;;8.05;40.29;100868.88;5443096;26;20238;-64
2024/04/23 09:37:11;;;;;;;4.20;3.33;;;;;;;8.01;41.05;100867.97;5450520;26;20246;-64
2024/04/23 09:39:39;;;;;;;7.47;3.70;;;;;;;7.76;41.01;100846.28;5450331;26;20354;-64
2024/04/23 09:42:23;;;;;;;7.43;3.73;;;;;;;7.77;40.62;100857.41;5423018;26;20253;-65
2024/04/23 09:44:50;;;;;;;4.00;3.60;;;;;;;7.72;41.19;100865.03;5430647;26;20253;-65
2024/04/23 09:47:21;;;;;;;4.50;3.50;;;;;;;7.71;41.51;100869.31;5450745;26;20302;-64
2024/04/23 09:49:55;;;;;;;5.80;3.60;;;;;;;7.75;41.13;100865.94;5451612;26;20788;-64
2024/04/23 09:52:31;;;;;;;5.33;3.43;;;;;;;7.66;40.57;100865.84;5449327;26;20338;-63
2024/04/23 09:54:58;;;;;;;5.27;3.47;;;;;;;7.43;40.92;100862.94;5449305;26;20242;-64
2024/04/23 09:57:28;;;;;;;4.83;3.47;;;;;;;7.39;41.12;100852.63;5447663;26;20649;-63
2024/04/23 09:59:55;;;;;;;4.50;3.10;;;;;;;7.50;41.75;100861.31;5446954;26;20631;-63
2024/04/23 10:02:29;;;;;;;6.13;3.73;;;;;;;7.55;40.87;100852.00;5451392;26;20935;-61
2024/04/23 10:05:04;;;;;;;4.30;3.30;;;;;;;7.64;41.02;100852.13;5450505;26;20246;-61
2024/04/23 10:07:38;;;;;;;4.37;3.70;;;;;;;7.82;40.64;100840.38;5449130;26;20234;-61
2024/04/23 10:10:08;;;;;;;6.17;3.60;;;;;;;7.91;39.47;100850.72;5445546;26;20649;-62
2024/04/23 10:12:44;;;;;;;4.47;3.30;;;;;;;7.94;39.38;100835.38;5449653;26;20358;-58
2024/04/23 10:15:16;;;;;;;3.60;3.10;;;;;;;7.91;39.57;100843.91;5449076;26;20234;-60
2024/04/23 10:17:52;;;;;;;4.47;3.20;;;;;;;7.80;39.34;100835.22;5449953;26;20343;-59
2024/04/23 10:20:25;;;;;;;4.00;3.10;;;;;;;7.73;40.15;100838.53;5449369;26;20813;-57
2024/04/23 10:22:55;;;;;;;6.00;3.43;;;;;;;7.81;40.05;100839.53;5449575;26;20250;-60
2024/04/23 10:25:24;;;;;;;3.77;3.33;;;;;;;7.83;40.25;100836.97;5450535;26;20285;-60
2024/04/23 10:27:56;;;;;;;4.43;3.60;;;;;;;7.84;40.01;100830.97;5450103;26;21231;-61
2024/04/23 10:30:25;;;;;;;4.30;3.30;;;;;;;7.94;40.76;100827.69;5450388;26;20234;-60
2024/04/23 10:32:56;;;;;;;5.80;3.47;;;;;;;8.08;40.20;100833.84;5450541;26;20242;-60
2024/04/23 10:35:30;;;;;;;4.40;3.93;;;;;;;8.25;40.23;100831.47;5450360;26;20298;-60
2024/04/23 10:38:02;;;;;;;6.70;3.73;;;;;;;8.46;39.48;100826.56;5446720;26;20250;-60
2024/04/23 10:40:30;;;;;;;3.77;3.33;;;;;;;8.49;38.11;100824.88;5449507;26;20246;-60
2024/04/23 10:43:16;;;;;;;3.67;3.27;;;;;;;8.73;38.25;100819.09;5449118;26;20395;-60
2024/04/23 10:45:43;;;;;;;3.50;3.20;;;;;;;10.18;35.35;100803.59;5448030;26;20222;-60
2024/04/23 10:48:13;;;;;;;4.00;3.40;;;;;;;11.96;33.45;100802.53;5449873;26;20242;-61
2024/04/23 10:50:52;;;;;;;4.77;3.73;;;;;;;13.56;31.00;100788.28;5450075;26;20796;-60
2024/04/23 10:53:22;;;;;;;4.63;3.57;;;;;;;14.14;29.31;100790.97;5449388;26;20296;-59
2024/04/23 10:55:50;;;;;;;4.30;3.37;;;;;;;13.90;29.63;100789.56;5450361;26;20315;-61
2024/04/23 10:58:22;;;;;;;4.53;3.53;;;;;;;13.04;29.10;100793.13;5449539;26;20237;-59
2024/04/23 11:00:58;;;;;;;4.47;3.57;;;;;;;12.02;30.60;100783.56;5450238;26;20222;-59
2024/04/23 11:03:29;;;;;;;4.47;3.93;;;;;;;11.51;31.83;100783.75;5445518;26;20249;-62
2024/04/23 11:05:59;;;;;;;4.27;3.33;;;;;;;11.33;33.36;100791.56;5448093;26;20350;-60
2024/04/23 11:08:30;;;;;;;3.90;3.13;;;;;;;11.13;32.98;100791.59;5461946;26;20238;-62
2024/04/23 11:11:06;;;;;;;4.20;3.77;;;;;;;10.82;33.80;100780.47;5453322;26;20257;-61
2024/04/23 11:13:40;;;;;;;9.50;6.27;;;;;;;10.34;34.44;100792.47;5453231;26;20245;-60
2024/04/23 11:16:14;;;;;;;4.13;3.60;;;;;;;9.93;34.54;100785.47;5453322;26;20234;-63
2024/04/23 11:18:46;;;;;;;4.77;3.90;;;;;;;9.71;35.41;100779.41;5443902;26;20245;-60
2024/04/23 11:21:26;;;;;;;5.70;4.57;;;;;;;9.51;35.44;100771.63;5454096;26;20773;-60
2024/04/23 11:23:58;;;;;;;4.07;3.40;;;;;;;9.49;36.03;100772.44;5454122;26;20225;-62
2024/04/23 11:26:25;;;;;;;6.17;4.10;;;;;;;9.66;35.76;100766.53;5453522;26;20224;-60
2024/04/23 11:28:56;;;;;;;4.67;3.80;;;;;;;10.09;36.02;100768.38;5451288;26;20606;-61
2024/04/23 11:31:24;;;;;;;5.63;4.27;;;;;;;10.33;35.09;100760.72;5446982;26;20284;-62
2024/04/23 11:33:54;;;;;;;6.37;4.23;;;;;;;10.53;35.28;100753.00;5453044;26;20315;-61
2024/04/23 11:36:28;;;;;;;6.80;4.53;;;;;;;10.31;34.47;100751.25;5439157;26;20291;-60
2024/04/23 11:39:00;;;;;;;4.37;3.63;;;;;;;10.31;35.11;100746.09;5445725;26;20289;-62
2024/04/23 11:41:28;;;;;;;6.30;4.20;;;;;;;10.73;35.28;100732.34;5448053;26;21090;-60
2024/04/23 11:44:01;;;;;;;8.03;4.50;;;;;;;11.23;34.60;100738.25;5447622;26;20821;-60
2024/04/23 11:46:29;;;;;;;5.33;4.17;;;;;;;11.49;31.95;100733.88;5449302;26;20480;-60
2024/04/23 11:49:00;;;;;;;4.77;4.13;;;;;;;11.43;33.05;100727.88;5452488;26;20238;-59